sensor_id;sensor_type;location;lat;lon;timestamp;P1;durP1;ratioP1;P2;durP2;ratioP2
31686;SDS011;18285;51.330;4.946;2024-01-30T00:00:11;3.13;;;2.67;;
31686;SDS011;18285;51.330;4.946;2024-01-30T00:24:22;3.50;;;2.70;;
31686;SDS011;18285;51.330;4.946;2024-01-30T00:48:33;3.25;;;2.60;;
31686;SDS011;18285;51.330;4.946;2024-01-30T01:12:44;2.92;;;2.40;;
31686;SDS011;18285;51.330;4.946;2024-01-30T01:36:55;5.22;;;2.50;;
31686;SDS011;18285;51.330;4.946;2024-01-30T02:01:05;3.90;;;2.20;;
31686;SDS011;18285;51.330;4.946;2024-01-30T02:25:17;2.00;;;1.80;;
31686;SDS011;18285;51.330;4.946;2024-01-30T02:49:28;2.67;;;2.00;;
31686;SDS011;18285;51.330;4.946;2024-01-30T03:13:39;3.03;;;2.10;;
31686;SDS011;18285;51.330;4.946;2024-01-30T03:37:50;2.20;;;1.73;;
31686;SDS011;18285;51.330;4.946;2024-01-30T04:26:12;2.65;;;1.77;;
31686;SDS011;18285;51.330;4.946;2024-01-30T04:50:23;2.25;;;1.88;;
31686;SDS011;18285;51.330;4.946;2024-01-30T05:14:34;2.47;;;1.75;;
31686;SDS011;18285;51.330;4.946;2024-01-30T06:02:55;4.80;;;2.00;;
31686;SDS011;18285;51.330;4.946;2024-01-30T06:51:16;11.13;;;4.03;;
31686;SDS011;18285;51.330;4.946;2024-01-30T07:15:27;9.57;;;3.67;;
31686;SDS011;18285;51.330;4.946;2024-01-30T07:39:37;6.70;;;3.40;;
31686;SDS011;18285;51.330;4.946;2024-01-30T08:03:48;4.40;;;3.20;;
31686;SDS011;18285;51.330;4.946;2024-01-30T08:27:59;4.07;;;2.80;;
31686;SDS011;18285;51.330;4.946;2024-01-30T08:52:10;4.90;;;2.90;;
31686;SDS011;18285;51.330;4.946;2024-01-30T09:16:21;3.20;;;2.90;;
31686;SDS011;18285;51.330;4.946;2024-01-30T10:04:51;4.40;;;3.03;;
31686;SDS011;18285;51.330;4.946;2024-01-30T10:53:13;5.70;;;3.25;;
31686;SDS011;18285;51.330;4.946;2024-01-30T11:17:27;5.22;;;3.45;;
31686;SDS011;18285;51.330;4.946;2024-01-30T11:41:38;5.13;;;2.33;;
31686;SDS011;18285;51.330;4.946;2024-01-30T12:30:11;2.58;;;1.20;;
31686;SDS011;18285;51.330;4.946;2024-01-30T12:54:24;1.67;;;1.15;;
31686;SDS011;18285;51.330;4.946;2024-01-30T13:18:34;3.67;;;1.43;;
31686;SDS011;18285;51.330;4.946;2024-01-30T13:42:45;5.70;;;2.47;;
31686;SDS011;18285;51.330;4.946;2024-01-30T14:06:55;3.57;;;1.40;;
31686;SDS011;18285;51.330;4.946;2024-01-30T14:31:06;6.00;;;2.00;;
31686;SDS011;18285;51.330;4.946;2024-01-30T14:55:17;5.70;;;2.27;;
31686;SDS011;18285;51.330;4.946;2024-01-30T15:19:28;3.97;;;2.47;;
31686;SDS011;18285;51.330;4.946;2024-01-30T15:43:38;3.03;;;1.40;;
31686;SDS011;18285;51.330;4.946;2024-01-30T16:07:49;2.63;;;1.20;;
31686;SDS011;18285;51.330;4.946;2024-01-30T16:32:00;9.80;;;3.03;;
31686;SDS011;18285;51.330;4.946;2024-01-30T16:56:10;7.40;;;3.00;;
31686;SDS011;18285;51.330;4.946;2024-01-30T17:20:21;10.33;;;3.40;;
31686;SDS011;18285;51.330;4.946;2024-01-30T17:44:32;12.83;;;4.47;;
31686;SDS011;18285;51.330;4.946;2024-01-30T18:08:46;14.25;;;5.60;;
31686;SDS011;18285;51.330;4.946;2024-01-30T18:32:57;9.93;;;4.83;;
31686;SDS011;18285;51.330;4.946;2024-01-30T18:57:08;8.45;;;4.70;;
31686;SDS011;18285;51.330;4.946;2024-01-30T19:21:18;7.73;;;4.53;;
31686;SDS011;18285;51.330;4.946;2024-01-30T19:45:29;9.83;;;4.57;;
31686;SDS011;18285;51.330;4.946;2024-01-30T20:09:40;7.37;;;3.70;;
31686;SDS011;18285;51.330;4.946;2024-01-30T20:33:51;5.60;;;3.53;;
31686;SDS011;18285;51.330;4.946;2024-01-30T20:58:01;7.27;;;5.60;;
31686;SDS011;18285;51.330;4.946;2024-01-30T21:22:12;6.07;;;3.60;;
31686;SDS011;18285;51.330;4.946;2024-01-30T21:46:23;5.67;;;3.37;;
31686;SDS011;18285;51.330;4.946;2024-01-30T22:10:35;5.10;;;3.42;;
31686;SDS011;18285;51.330;4.946;2024-01-30T22:34:46;5.23;;;3.80;;
31686;SDS011;18285;51.330;4.946;2024-01-30T22:58:56;4.90;;;3.47;;
31686;SDS011;18285;51.330;4.946;2024-01-30T23:23:07;6.10;;;3.30;;
31686;SDS011;18285;51.330;4.946;2024-01-30T23:47:18;3.97;;;2.53;;
